createdAt,value
2022-11-30T00:00:41.448Z,16.48
2022-11-30T00:03:08.710Z,18.10
2022-11-30T00:05:35.520Z,17.88
2022-11-30T00:08:02.530Z,31.17
2022-11-30T00:10:30.451Z,21.50
2022-11-30T00:12:57.455Z,20.33
2022-11-30T00:15:24.612Z,42.15
2022-11-30T00:17:57.226Z,67.03
2022-11-30T00:20:24.642Z,20.80
2022-11-30T00:22:51.463Z,25.70
2022-11-30T00:25:18.455Z,25.20
2022-11-30T00:27:45.452Z,22.95
2022-11-30T00:30:12.782Z,18.55
2022-11-30T00:32:39.576Z,22.30
2022-11-30T00:35:06.783Z,18.45
2022-11-30T00:37:35.435Z,21.17
2022-11-30T00:40:02.092Z,21.05
2022-11-30T00:42:31.212Z,19.52
2022-11-30T00:44:58.123Z,18.50
2022-11-30T00:47:25.133Z,18.63
2022-11-30T00:49:51.765Z,21.10
2022-11-30T00:52:18.444Z,16.73
2022-11-30T00:54:45.833Z,16.92
2022-11-30T00:57:12.963Z,19.23
2022-11-30T00:59:39.659Z,18.92
2022-11-30T01:02:06.679Z,20.08
2022-11-30T01:04:33.689Z,23.35
2022-11-30T01:07:00.775Z,18.33
2022-11-30T01:09:27.784Z,20.05
2022-11-30T01:11:54.813Z,17.10
2022-11-30T01:14:21.908Z,17.52
2022-11-30T01:16:54.773Z,17.15
2022-11-30T01:19:23.608Z,19.55
2022-11-30T01:21:50.256Z,18.65
2022-11-30T01:24:17.013Z,17.88
2022-11-30T01:26:44.084Z,15.82
2022-11-30T01:29:11.114Z,17.25
2022-11-30T01:31:37.826Z,17.02
2022-11-30T01:34:04.964Z,17.00
2022-11-30T01:36:32.379Z,15.82
2022-11-30T01:38:59.322Z,16.63
2022-11-30T01:41:30.643Z,16.83
2022-11-30T01:44:20.090Z,16.73
2022-11-30T01:46:54.735Z,17.50
2022-11-30T01:49:34.740Z,16.48
2022-11-30T01:52:05.923Z,16.67
2022-11-30T01:54:38.746Z,17.27
2022-11-30T01:57:19.925Z,14.25
2022-11-30T01:59:48.355Z,16.67
2022-11-30T02:02:15.674Z,16.83
2022-11-30T02:04:42.949Z,17.70
2022-11-30T02:07:10.992Z,19.38
2022-11-30T02:09:44.121Z,19.67
2022-11-30T02:12:30.591Z,21.25
2022-11-30T02:15:00.292Z,18.88
2022-11-30T02:18:07.546Z,17.00
2022-11-30T02:21:06.301Z,17.88
2022-11-30T02:23:54.900Z,17.88
2022-11-30T02:26:56.389Z,19.30
2022-11-30T02:29:36.708Z,20.27
2022-11-30T02:32:22.144Z,18.88
2022-11-30T02:34:50.417Z,21.17
2022-11-30T02:37:19.179Z,19.23
2022-11-30T02:39:46.249Z,19.40
2022-11-30T02:42:14.711Z,17.48
2022-11-30T02:44:45.403Z,19.35
2022-11-30T02:47:32.769Z,17.90
2022-11-30T02:50:04.436Z,17.63
2022-11-30T02:52:32.528Z,19.00
2022-11-30T02:55:06.317Z,19.40
2022-11-30T02:57:33.639Z,19.80
2022-11-30T03:00:02.635Z,18.08
2022-11-30T03:02:30.517Z,19.17
2022-11-30T03:04:57.464Z,18.35
2022-11-30T03:07:24.289Z,19.25
2022-11-30T03:09:51.265Z,19.00
2022-11-30T03:12:18.295Z,18.30
2022-11-30T03:14:45.635Z,17.70
2022-11-30T03:17:12.825Z,16.92
2022-11-30T03:19:39.769Z,19.27
2022-11-30T03:22:06.813Z,18.17
2022-11-30T03:24:33.989Z,17.15
2022-11-30T03:27:01.091Z,19.20
2022-11-30T03:29:27.753Z,20.20
2022-11-30T03:31:54.759Z,18.98
2022-11-30T03:34:22.594Z,21.63
2022-11-30T03:36:49.488Z,20.77
2022-11-30T03:39:16.160Z,19.48
2022-11-30T03:41:43.318Z,22.27
2022-11-30T03:44:10.687Z,20.77
2022-11-30T03:46:37.822Z,21.75
2022-11-30T03:49:04.755Z,21.95
2022-11-30T03:51:31.901Z,24.13
2022-11-30T03:53:58.930Z,23.70
2022-11-30T03:56:25.934Z,24.08
2022-11-30T03:58:53.088Z,25.30
2022-11-30T04:01:23.401Z,23.83
2022-11-30T04:03:51.729Z,27.23
2022-11-30T04:06:19.375Z,25.45
2022-11-30T04:08:46.749Z,24.60
2022-11-30T04:11:13.994Z,23.17
2022-11-30T04:13:41.745Z,28.52
2022-11-30T04:16:09.121Z,23.52
2022-11-30T04:18:37.513Z,24.90
2022-11-30T04:21:06.596Z,26.02
2022-11-30T04:23:36.275Z,28.20
2022-11-30T04:26:08.607Z,25.80
2022-11-30T04:28:36.087Z,24.52
2022-11-30T04:31:03.177Z,24.58
2022-11-30T04:33:30.225Z,25.38
2022-11-30T04:36:00.224Z,22.88
2022-11-30T04:40:54.739Z,20.52
2022-11-30T04:43:22.055Z,23.40
2022-11-30T04:45:49.366Z,19.95
2022-11-30T04:48:17.244Z,20.65
2022-11-30T04:50:44.971Z,21.88
2022-11-30T04:53:11.971Z,19.63
2022-11-30T04:55:39.291Z,21.08
2022-11-30T04:58:07.024Z,21.02
2022-11-30T05:00:35.192Z,21.08
2022-11-30T05:03:02.400Z,22.23
2022-11-30T05:05:29.321Z,20.25
2022-11-30T05:07:58.043Z,20.27
2022-11-30T05:10:25.296Z,20.23
2022-11-30T05:12:52.400Z,25.77
2022-11-30T05:15:19.412Z,49.95
2022-11-30T05:17:46.381Z,41.97
2022-11-30T05:20:13.710Z,41.25
2022-11-30T05:22:40.479Z,29.88
2022-11-30T05:25:08.295Z,37.58
2022-11-30T05:27:35.410Z,38.05
2022-11-30T05:30:03.196Z,29.77
2022-11-30T05:32:29.882Z,28.27
2022-11-30T05:34:57.425Z,30.17
2022-11-30T05:37:24.392Z,24.85
2022-11-30T05:39:51.407Z,19.83
2022-11-30T05:42:18.498Z,23.77
2022-11-30T05:44:46.050Z,26.40
2022-11-30T05:47:13.242Z,26.85
2022-11-30T05:49:40.004Z,23.50
2022-11-30T05:52:07.226Z,28.42
2022-11-30T05:54:34.685Z,18.35
2022-11-30T05:57:01.888Z,23.60
2022-11-30T05:59:28.544Z,24.30
2022-11-30T06:01:55.473Z,28.92
2022-11-30T06:04:22.500Z,27.35
2022-11-30T06:06:49.610Z,15.50
2022-11-30T06:09:16.568Z,26.67
2022-11-30T06:11:43.489Z,23.95
2022-11-30T06:14:10.504Z,29.40
2022-11-30T06:16:39.668Z,21.25
2022-11-30T06:19:06.656Z,20.30
2022-11-30T06:21:33.795Z,26.55
2022-11-30T06:24:00.940Z,22.08
2022-11-30T06:26:27.817Z,22.75
2022-11-30T06:28:54.877Z,23.55
2022-11-30T06:31:21.959Z,29.85
2022-11-30T06:33:49.278Z,28.52
2022-11-30T06:36:23.878Z,25.10
2022-11-30T06:38:51.628Z,24.38
2022-11-30T06:41:19.257Z,21.70
2022-11-30T06:43:46.365Z,21.10
2022-11-30T06:46:13.494Z,31.50
2022-11-30T06:48:40.500Z,17.20
2022-11-30T06:51:09.172Z,23.33
2022-11-30T06:53:36.758Z,17.55
2022-11-30T06:56:10.477Z,23.30
2022-11-30T06:58:41.096Z,23.45
2022-11-30T07:01:10.823Z,27.85
2022-11-30T07:03:38.363Z,24.02
2022-11-30T07:06:10.766Z,21.23
2022-11-30T07:08:38.627Z,22.95
2022-11-30T07:11:06.513Z,25.65
2022-11-30T07:13:34.865Z,23.20
2022-11-30T07:16:06.527Z,21.65
2022-11-30T07:18:34.143Z,17.95
2022-11-30T07:21:02.316Z,21.23
2022-11-30T07:23:54.049Z,19.80
2022-11-30T07:26:23.243Z,28.95
2022-11-30T07:28:54.498Z,22.38
2022-11-30T07:31:24.008Z,30.60
2022-11-30T07:33:51.644Z,23.42
2022-11-30T07:36:20.953Z,22.77
2022-11-30T07:38:48.175Z,17.70
2022-11-30T07:41:14.952Z,25.63
2022-11-30T07:43:42.109Z,25.50
2022-11-30T07:46:12.276Z,25.58
2022-11-30T07:48:39.360Z,28.80
2022-11-30T07:51:10.216Z,27.30
2022-11-30T07:53:37.024Z,24.35
2022-11-30T07:56:06.833Z,19.83
2022-11-30T07:58:33.948Z,26.60
2022-11-30T08:01:09.080Z,28.58
2022-11-30T08:03:37.705Z,30.95
2022-11-30T08:06:07.656Z,30.55
2022-11-30T08:08:41.161Z,29.80
2022-11-30T08:11:09.879Z,28.67
2022-11-30T08:13:36.991Z,22.95
2022-11-30T08:16:15.615Z,24.63
2022-11-30T08:18:43.038Z,30.80
2022-11-30T08:21:12.105Z,23.52
2022-11-30T08:23:54.015Z,24.23
2022-11-30T08:26:22.992Z,21.27
2022-11-30T08:28:51.129Z,17.73
2022-11-30T08:31:19.392Z,23.60
2022-11-30T08:33:46.964Z,25.05
2022-11-30T08:36:19.794Z,27.65
2022-11-30T08:38:47.718Z,22.38
2022-11-30T08:41:16.891Z,19.77
2022-11-30T08:43:43.951Z,20.27
2022-11-30T08:46:42.431Z,34.17
2022-11-30T08:49:20.882Z,19.48
2022-11-30T08:52:15.877Z,19.50
2022-11-30T08:54:36.326Z,23.00
2022-11-30T08:57:03.216Z,24.23
2022-11-30T08:59:31.752Z,21.08
2022-11-30T09:01:58.868Z,19.60
2022-11-30T09:04:25.977Z,19.77
2022-11-30T09:06:58.592Z,17.42
2022-11-30T09:09:25.835Z,18.15
2022-11-30T09:11:52.823Z,20.00
2022-11-30T09:14:19.817Z,19.60
2022-11-30T09:16:46.886Z,19.33
2022-11-30T09:19:13.959Z,33.00
2022-11-30T09:21:40.902Z,28.05
2022-11-30T09:24:08.076Z,25.10
2022-11-30T09:26:35.017Z,26.70
2022-11-30T09:29:02.083Z,20.63
2022-11-30T09:31:29.144Z,21.65
2022-11-30T09:33:58.029Z,19.30
2022-11-30T09:36:29.933Z,14.65
2022-11-30T09:38:57.453Z,21.30
2022-11-30T09:41:45.724Z,20.55
2022-11-30T09:44:31.483Z,20.92
2022-11-30T09:47:02.715Z,20.73
2022-11-30T09:49:39.122Z,20.80
2022-11-30T09:52:26.404Z,21.38
2022-11-30T09:54:54.456Z,18.42
2022-11-30T09:57:26.952Z,20.88
2022-11-30T10:00:02.856Z,20.80
2022-11-30T10:02:33.824Z,21.00
2022-11-30T10:05:01.624Z,20.23
2022-11-30T10:08:10.236Z,23.23
2022-11-30T10:10:56.092Z,23.48
2022-11-30T10:13:27.924Z,21.80
2022-11-30T10:16:03.297Z,22.13
2022-11-30T10:18:54.703Z,21.70
2022-11-30T10:21:40.432Z,19.98
2022-11-30T10:24:33.748Z,21.77
2022-11-30T10:27:39.312Z,21.35
2022-11-30T10:30:16.029Z,20.48
2022-11-30T10:32:47.540Z,22.48
2022-11-30T10:35:37.120Z,25.60
2022-11-30T10:38:31.814Z,25.52
2022-11-30T10:41:16.008Z,20.50
2022-11-30T10:43:55.202Z,24.23
2022-11-30T10:46:29.038Z,20.38
2022-11-30T10:49:06.582Z,20.42
2022-11-30T10:51:37.647Z,20.65
2022-11-30T10:54:16.314Z,22.88
2022-11-30T10:56:43.133Z,24.77
2022-11-30T10:59:18.499Z,24.38
2022-11-30T11:01:45.576Z,22.25
2022-11-30T11:04:29.939Z,22.65
2022-11-30T11:06:59.351Z,22.65
2022-11-30T11:09:47.004Z,21.63
2022-11-30T11:12:27.558Z,22.48
2022-11-30T11:15:30.490Z,21.95
2022-11-30T11:18:22.703Z,22.80
2022-11-30T11:21:04.392Z,23.15
2022-11-30T11:23:39.629Z,22.77
2022-11-30T11:26:14.857Z,86.32
2022-11-30T11:28:45.880Z,24.17
2022-11-30T11:31:34.268Z,23.80
2022-11-30T11:34:01.548Z,22.83
2022-11-30T11:36:31.287Z,23.83
2022-11-30T11:38:59.179Z,19.90
2022-11-30T11:41:33.863Z,21.63
2022-11-30T11:44:09.748Z,23.13
2022-11-30T11:46:58.154Z,21.98
2022-11-30T11:49:31.684Z,21.20
2022-11-30T11:52:21.290Z,23.60
2022-11-30T11:54:56.836Z,21.77
2022-11-30T11:57:41.802Z,21.65
2022-11-30T12:00:21.000Z,21.92
2022-11-30T12:03:25.285Z,21.67
2022-11-30T12:05:58.417Z,25.20
2022-11-30T12:08:33.480Z,22.40
2022-11-30T12:11:17.716Z,22.98
2022-11-30T12:13:46.756Z,21.92
2022-11-30T12:16:29.934Z,20.63
2022-11-30T12:19:03.587Z,22.25
2022-11-30T12:21:36.703Z,21.30
2022-11-30T12:24:17.802Z,24.17
2022-11-30T12:26:49.399Z,25.25
2022-11-30T12:29:54.053Z,22.33
2022-11-30T12:32:27.429Z,24.00
2022-11-30T12:35:17.916Z,21.75
2022-11-30T12:37:50.734Z,21.10
2022-11-30T12:40:33.354Z,21.05
2022-11-30T12:43:22.714Z,21.55
2022-11-30T12:45:54.473Z,21.30
2022-11-30T12:48:40.270Z,20.85
2022-11-30T12:51:15.660Z,23.55
2022-11-30T12:53:49.413Z,21.67
2022-11-30T12:56:16.419Z,27.42
2022-11-30T12:59:02.592Z,21.95
2022-11-30T13:01:37.366Z,21.85
2022-11-30T13:04:14.432Z,23.88
2022-11-30T13:06:47.661Z,23.35
2022-11-30T13:09:32.132Z,22.65
2022-11-30T13:12:15.555Z,24.13
2022-11-30T13:14:43.439Z,22.05
2022-11-30T13:17:19.318Z,23.27
2022-11-30T13:20:14.325Z,22.38
2022-11-30T13:22:53.469Z,22.38
2022-11-30T13:26:06.825Z,25.60
2022-11-30T13:28:32.180Z,23.90
2022-11-30T13:31:02.207Z,21.73
2022-11-30T13:33:35.068Z,25.30
2022-11-30T13:36:07.462Z,26.00
2022-11-30T13:38:37.591Z,22.67
2022-11-30T13:41:08.322Z,23.83
2022-11-30T13:43:55.323Z,22.80
2022-11-30T13:46:23.975Z,22.70
2022-11-30T13:49:17.320Z,24.00
2022-11-30T13:51:44.246Z,23.92
2022-11-30T13:54:50.496Z,28.20
2022-11-30T13:57:29.423Z,32.67
2022-11-30T14:00:01.048Z,23.75
2022-11-30T14:02:34.484Z,22.90
2022-11-30T14:05:19.140Z,25.63
2022-11-30T14:07:50.116Z,23.40
2022-11-30T14:10:34.703Z,26.17
2022-11-30T14:13:10.802Z,27.45
2022-11-30T14:15:41.669Z,30.48
2022-11-30T14:18:08.390Z,30.50
2022-11-30T14:21:01.628Z,27.30
2022-11-30T14:23:31.387Z,25.60
2022-11-30T14:26:07.685Z,24.10
2022-11-30T14:29:02.189Z,25.30
2022-11-30T14:31:34.333Z,25.50
2022-11-30T14:34:16.634Z,24.92
2022-11-30T14:36:56.391Z,25.33
2022-11-30T14:39:25.937Z,28.17
2022-11-30T14:41:53.556Z,28.20
2022-11-30T14:44:20.647Z,32.22
2022-11-30T14:46:47.625Z,28.63
2022-11-30T14:49:24.214Z,29.92
2022-11-30T14:52:04.575Z,34.00
2022-11-30T14:54:37.704Z,32.63
2022-11-30T14:57:36.324Z,29.88
2022-11-30T15:00:05.824Z,29.90
2022-11-30T15:02:38.652Z,31.08
2022-11-30T15:05:08.692Z,30.67
2022-11-30T15:07:36.919Z,28.35
2022-11-30T15:10:14.519Z,31.23
2022-11-30T15:12:44.681Z,28.75
2022-11-30T15:15:17.045Z,31.40
2022-11-30T15:17:59.080Z,29.35
2022-11-30T15:20:27.868Z,29.50
2022-11-30T15:22:57.477Z,30.52
2022-11-30T15:25:30.145Z,27.10
2022-11-30T15:27:58.469Z,27.90
2022-11-30T15:30:25.263Z,29.90
2022-11-30T15:32:52.834Z,28.65
2022-11-30T15:35:30.769Z,28.58
2022-11-30T15:38:10.753Z,28.00
2022-11-30T15:40:37.791Z,27.42
2022-11-30T15:43:04.813Z,27.67
2022-11-30T15:45:35.279Z,25.45
2022-11-30T15:48:03.788Z,30.95
2022-11-30T15:50:37.595Z,29.30
2022-11-30T15:53:50.127Z,30.20
2022-11-30T15:56:25.786Z,29.80
2022-11-30T15:59:22.169Z,29.92
2022-11-30T16:02:08.893Z,27.23
2022-11-30T16:04:57.671Z,29.38
2022-11-30T16:07:35.679Z,29.65
2022-11-30T16:10:13.191Z,29.10
2022-11-30T16:12:41.276Z,31.85
2022-11-30T16:15:26.650Z,31.60
2022-11-30T16:17:57.056Z,31.48
2022-11-30T16:20:24.670Z,33.67
2022-11-30T16:22:51.859Z,35.65
2022-11-30T16:25:24.823Z,36.60
2022-11-30T16:27:52.531Z,32.67
2022-11-30T16:30:23.732Z,32.70
2022-11-30T16:32:50.909Z,30.45
2022-11-30T16:35:22.475Z,34.72
2022-11-30T16:37:50.483Z,32.33
2022-11-30T16:40:18.353Z,34.20
2022-11-30T16:42:45.278Z,32.65
2022-11-30T16:45:35.933Z,33.90
2022-11-30T16:48:03.076Z,31.63
2022-11-30T16:50:32.380Z,34.13
2022-11-30T16:52:59.475Z,30.70
2022-11-30T16:55:31.278Z,34.53
2022-11-30T16:57:58.616Z,35.42
2022-11-30T17:00:25.347Z,33.45
2022-11-30T17:02:56.934Z,35.42
2022-11-30T17:05:25.733Z,36.03
2022-11-30T17:07:52.802Z,36.42
2022-11-30T17:10:20.246Z,37.28
2022-11-30T17:12:47.357Z,36.30
2022-11-30T17:15:20.781Z,36.63
2022-11-30T17:17:47.983Z,37.47
2022-11-30T17:20:16.972Z,36.25
2022-11-30T17:22:44.621Z,36.50
2022-11-30T17:25:18.970Z,37.05
2022-11-30T17:27:45.895Z,38.13
2022-11-30T17:30:14.243Z,35.80
2022-11-30T17:32:41.056Z,38.78
2022-11-30T17:35:08.881Z,34.20
2022-11-30T17:37:36.184Z,37.80
2022-11-30T17:40:04.126Z,36.63
2022-11-30T17:42:31.151Z,41.25
2022-11-30T17:44:57.916Z,37.42
2022-11-30T17:47:24.820Z,37.03
2022-11-30T17:49:51.765Z,38.75
2022-11-30T17:52:18.711Z,38.40
2022-11-30T17:54:46.065Z,37.47
2022-11-30T17:57:13.233Z,35.90
2022-11-30T17:59:40.230Z,37.75
2022-11-30T18:02:09.527Z,36.60
2022-11-30T18:04:36.369Z,40.72
2022-11-30T18:07:03.106Z,36.33
2022-11-30T18:09:35.458Z,38.75
2022-11-30T18:12:06.244Z,36.72
2022-11-30T18:14:33.192Z,39.08
2022-11-30T18:17:01.100Z,36.03
2022-11-30T18:19:28.912Z,37.95
2022-11-30T18:21:56.091Z,37.15
2022-11-30T18:24:25.538Z,35.85
2022-11-30T18:29:19.719Z,35.53
2022-11-30T18:31:48.404Z,37.03
2022-11-30T18:34:15.518Z,37.05
2022-11-30T18:36:42.686Z,37.55
2022-11-30T18:39:09.755Z,36.38
2022-11-30T18:41:36.626Z,39.70
2022-11-30T18:44:03.865Z,37.28
2022-11-30T18:46:30.918Z,37.08
2022-11-30T18:48:59.416Z,37.60
2022-11-30T18:51:27.991Z,38.58
2022-11-30T18:53:59.977Z,37.42
2022-11-30T18:56:29.926Z,38.88
2022-11-30T18:58:58.800Z,40.38
2022-11-30T19:01:26.368Z,37.40
2022-11-30T19:04:02.084Z,36.38
2022-11-30T19:06:32.523Z,39.17
2022-11-30T19:09:05.302Z,37.63
2022-11-30T19:11:33.859Z,39.28
2022-11-30T19:14:01.839Z,37.20
2022-11-30T19:16:34.343Z,39.38
2022-11-30T19:19:05.126Z,37.38
2022-11-30T19:21:32.051Z,35.72
2022-11-30T19:23:59.644Z,42.25
2022-11-30T19:26:28.408Z,42.30
2022-11-30T19:28:57.487Z,41.40
2022-11-30T19:31:25.800Z,42.95
2022-11-30T19:33:54.253Z,39.70
2022-11-30T19:36:27.177Z,40.72
2022-11-30T19:38:54.366Z,41.42
2022-11-30T19:41:22.136Z,46.85
2022-11-30T19:44:01.064Z,47.88
2022-11-30T19:46:31.530Z,38.88
2022-11-30T19:49:01.351Z,43.67
2022-11-30T19:53:57.420Z,45.50
2022-11-30T19:56:26.772Z,46.92
2022-11-30T19:58:53.651Z,46.35
2022-11-30T20:01:23.138Z,45.45
2022-11-30T20:03:54.948Z,48.97
2022-11-30T20:06:25.639Z,44.97
2022-11-30T20:08:53.729Z,41.88
2022-11-30T20:11:20.713Z,48.47
2022-11-30T20:13:47.987Z,42.08
2022-11-30T20:16:16.936Z,45.03
2022-11-30T20:18:46.461Z,39.50
2022-11-30T20:21:16.834Z,44.97
2022-11-30T20:23:45.058Z,44.75
2022-11-30T20:26:16.100Z,48.53
2022-11-30T20:28:43.542Z,37.65
2022-11-30T20:31:11.820Z,42.85
2022-11-30T20:33:39.377Z,42.38
2022-11-30T20:36:08.157Z,39.97
2022-11-30T20:38:36.200Z,40.85
2022-11-30T20:41:03.572Z,42.50
2022-11-30T20:43:30.431Z,44.92
2022-11-30T20:45:57.466Z,41.78
2022-11-30T20:48:24.267Z,42.70
2022-11-30T20:51:13.997Z,40.58
2022-11-30T20:53:38.050Z,39.90
2022-11-30T20:56:05.283Z,37.42
2022-11-30T20:58:33.584Z,39.85
2022-11-30T21:01:00.868Z,36.75
2022-11-30T21:03:28.424Z,39.05
2022-11-30T21:05:55.174Z,39.30
2022-11-30T21:08:22.641Z,37.60
2022-11-30T21:10:49.619Z,37.63
2022-11-30T21:13:16.649Z,38.22
2022-11-30T21:15:43.737Z,39.85
2022-11-30T21:18:11.585Z,41.47
2022-11-30T21:20:38.625Z,39.33
2022-11-30T21:23:05.648Z,39.28
2022-11-30T21:25:35.122Z,41.17
2022-11-30T21:28:01.933Z,38.97
2022-11-30T21:30:28.573Z,37.85
2022-11-30T21:32:55.518Z,40.38
2022-11-30T21:35:22.823Z,40.35
2022-11-30T21:37:49.565Z,37.95
2022-11-30T21:40:17.499Z,41.20
2022-11-30T21:42:44.491Z,39.78
2022-11-30T21:45:12.436Z,41.88
2022-11-30T21:47:39.472Z,40.13
2022-11-30T21:50:06.946Z,40.88
2022-11-30T21:52:35.876Z,39.10
2022-11-30T21:55:02.715Z,36.70
2022-11-30T21:57:30.469Z,37.38
2022-11-30T21:59:57.484Z,35.20
2022-11-30T22:02:24.225Z,35.88
2022-11-30T22:04:51.274Z,38.40
2022-11-30T22:07:31.522Z,36.88
2022-11-30T22:09:58.831Z,36.88
2022-11-30T22:12:25.901Z,36.67
2022-11-30T22:14:53.014Z,35.85
2022-11-30T22:17:20.768Z,37.03
2022-11-30T22:19:47.763Z,41.35
2022-11-30T22:22:14.897Z,39.28
2022-11-30T22:24:42.307Z,41.00
2022-11-30T22:27:08.980Z,41.65
2022-11-30T22:29:36.056Z,41.28
2022-11-30T22:32:03.456Z,39.83
2022-11-30T22:34:30.871Z,40.13
2022-11-30T22:36:57.675Z,36.97
2022-11-30T22:39:24.620Z,37.90
2022-11-30T22:41:55.538Z,38.22
2022-11-30T22:44:23.248Z,40.42
2022-11-30T22:46:50.364Z,39.60
2022-11-30T22:49:21.244Z,35.90
2022-11-30T22:51:49.325Z,34.03
2022-11-30T22:54:16.630Z,35.55
2022-11-30T22:56:44.159Z,36.72
2022-11-30T22:59:12.538Z,35.63
2022-11-30T23:01:43.225Z,34.47
2022-11-30T23:04:13.171Z,34.60
2022-11-30T23:06:42.727Z,34.63
2022-11-30T23:09:13.630Z,35.42
2022-11-30T23:11:42.188Z,32.30
2022-11-30T23:14:09.787Z,36.10
2022-11-30T23:16:37.030Z,32.83
2022-11-30T23:19:05.147Z,32.00
2022-11-30T23:21:41.355Z,34.78
2022-11-30T23:24:12.069Z,34.03
2022-11-30T23:26:39.432Z,34.72
2022-11-30T23:29:10.397Z,41.10
2022-11-30T23:31:38.800Z,38.88
2022-11-30T23:34:08.346Z,46.42
2022-11-30T23:36:36.161Z,42.38
2022-11-30T23:39:12.264Z,37.42
2022-11-30T23:41:39.751Z,41.47
2022-11-30T23:44:07.290Z,37.53
2022-11-30T23:46:35.026Z,38.15
2022-11-30T23:49:02.122Z,38.28
2022-11-30T23:51:28.850Z,24.63
2022-11-30T23:53:55.941Z,33.33
2022-11-30T23:56:24.050Z,32.33
2022-11-30T23:58:51.218Z,30.23
